createdAt,value
2023-02-22T00:01:35.274Z,101586.44
2023-02-22T00:04:06.700Z,101583.00
2023-02-22T00:06:33.264Z,101578.72
2023-02-22T00:08:59.940Z,101579.59
2023-02-22T00:11:26.660Z,101579.63
2023-02-22T00:13:56.994Z,101582.22
2023-02-22T00:16:24.301Z,101579.63
2023-02-22T00:18:51.816Z,101583.97
2023-02-22T00:21:18.810Z,101577.03
2023-02-22T00:23:48.206Z,101577.84
2023-02-22T00:26:19.317Z,101580.44
2023-02-22T00:28:52.418Z,101575.25
2023-02-22T00:31:19.939Z,101579.59
2023-02-22T00:33:46.563Z,101576.16
2023-02-22T00:36:13.561Z,101581.41
2023-02-22T00:38:41.337Z,101578.91
2023-02-22T00:41:08.141Z,101578.94
2023-02-22T00:43:34.572Z,101580.66
2023-02-22T00:46:01.092Z,101581.50
2023-02-22T00:48:28.247Z,101571.13
2023-02-22T00:50:55.280Z,101572.00
2023-02-22T00:53:25.478Z,101567.72
2023-02-22T00:55:52.708Z,101559.97
2023-02-22T00:58:19.526Z,101563.41
2023-02-22T01:00:46.682Z,101553.91
2023-02-22T01:03:16.054Z,101555.63
2023-02-22T01:05:43.175Z,101552.22
2023-02-22T01:08:12.176Z,101553.97
2023-02-22T01:10:39.740Z,101541.97
2023-02-22T01:13:09.302Z,101546.25
2023-02-22T01:15:37.734Z,101549.78
2023-02-22T01:18:05.086Z,101543.78
2023-02-22T01:20:32.570Z,101544.63
2023-02-22T01:23:01.546Z,101538.59
2023-02-22T01:25:30.270Z,101540.38
2023-02-22T01:27:58.425Z,101534.38
2023-02-22T01:30:28.296Z,101535.28
2023-02-22T01:32:55.703Z,101531.81
2023-02-22T01:35:27.836Z,101531.81
2023-02-22T01:37:54.774Z,101530.13
2023-02-22T01:40:30.836Z,101530.97
2023-02-22T01:43:00.220Z,101532.81
2023-02-22T01:45:29.988Z,101526.78
2023-02-22T01:48:00.428Z,101513.91
2023-02-22T01:50:27.599Z,101525.13
2023-02-22T01:52:54.268Z,101518.28
2023-02-22T01:55:20.709Z,101513.16
2023-02-22T01:57:48.373Z,101518.41
2023-02-22T02:00:20.183Z,101523.50
2023-02-22T02:02:59.034Z,101519.25
2023-02-22T02:05:31.455Z,101510.69
2023-02-22T02:07:59.588Z,101511.53
2023-02-22T02:10:26.730Z,101505.56
2023-02-22T02:12:53.904Z,101500.47
2023-02-22T02:15:32.815Z,101494.44
2023-02-22T02:18:06.190Z,101490.13
2023-02-22T02:20:47.469Z,101490.13
2023-02-22T02:23:51.599Z,101498.94
2023-02-22T02:26:36.571Z,101489.59
2023-02-22T02:29:34.893Z,101486.16
2023-02-22T02:32:22.670Z,101486.25
2023-02-22T02:35:04.712Z,101479.44
2023-02-22T02:37:36.773Z,101479.53
2023-02-22T02:40:12.079Z,101478.75
2023-02-22T02:42:46.948Z,101464.13
2023-02-22T02:45:24.725Z,101461.59
2023-02-22T02:47:58.774Z,101464.19
2023-02-22T02:50:31.928Z,101456.47
2023-02-22T02:53:04.536Z,101457.38
2023-02-22T02:55:32.437Z,101452.25
2023-02-22T02:58:00.173Z,101453.13
2023-02-22T03:00:39.036Z,101450.59
2023-02-22T03:03:11.300Z,101453.28
2023-02-22T03:06:01.792Z,101446.34
2023-02-22T03:08:59.155Z,101447.22
2023-02-22T03:11:32.139Z,101442.19
2023-02-22T03:13:58.475Z,101440.63
2023-02-22T03:16:40.428Z,101442.44
2023-02-22T03:19:28.255Z,101441.59
2023-02-22T03:22:02.413Z,101445.13
2023-02-22T03:24:39.514Z,101439.09
2023-02-22T03:27:21.752Z,101445.09
2023-02-22T03:29:51.494Z,101428.00
2023-02-22T03:32:23.282Z,101428.91
2023-02-22T03:34:57.386Z,101424.66
2023-02-22T03:37:30.725Z,101428.16
2023-02-22T03:40:01.613Z,101429.91
2023-02-22T03:42:37.575Z,101423.94
2023-02-22T03:45:07.004Z,101424.00
2023-02-22T03:47:44.383Z,101420.66
2023-02-22T03:50:35.629Z,101419.03
2023-02-22T03:53:02.751Z,101415.69
2023-02-22T03:55:31.305Z,101414.03
2023-02-22T03:57:59.935Z,101415.75
2023-02-22T04:00:30.600Z,101403.78
2023-02-22T04:02:57.453Z,101407.34
2023-02-22T04:05:24.983Z,101406.56
2023-02-22T04:07:56.455Z,101406.53
2023-02-22T04:10:24.463Z,101405.69
2023-02-22T04:12:51.064Z,101404.91
2023-02-22T04:15:21.556Z,101401.41
2023-02-22T04:17:47.976Z,101391.09
2023-02-22T04:20:15.295Z,101398.81
2023-02-22T04:22:41.679Z,101392.72
2023-02-22T04:25:08.660Z,101388.38
2023-02-22T04:27:35.029Z,101389.25
2023-02-22T04:30:01.444Z,101390.97
2023-02-22T04:32:27.826Z,101384.97
2023-02-22T04:34:54.204Z,101378.03
2023-02-22T04:37:20.604Z,101365.97
2023-02-22T04:39:47.094Z,101371.19
2023-02-22T04:42:13.532Z,101366.88
2023-02-22T04:44:39.906Z,101372.88
2023-02-22T04:47:06.436Z,101366.88
2023-02-22T04:49:32.879Z,101362.56
2023-02-22T04:51:59.281Z,101350.53
2023-02-22T04:54:25.709Z,101354.78
2023-02-22T04:56:52.228Z,101355.72
2023-02-22T04:59:19.754Z,101341.97
2023-02-22T05:01:46.352Z,101339.41
2023-02-22T05:04:12.774Z,101335.94
2023-02-22T05:06:39.125Z,101334.28
2023-02-22T05:09:05.562Z,101339.44
2023-02-22T05:11:32.034Z,101331.72
2023-02-22T05:13:58.404Z,101329.13
2023-02-22T05:16:24.799Z,101329.13
2023-02-22T05:18:51.319Z,101330.03
2023-02-22T05:21:18.256Z,101331.78
2023-02-22T05:23:44.764Z,101329.16
2023-02-22T05:26:11.734Z,101322.31
2023-02-22T05:28:38.545Z,101322.31
2023-02-22T05:31:05.479Z,101317.16
2023-02-22T05:33:31.955Z,101311.13
2023-02-22T05:35:58.534Z,101314.59
2023-02-22T05:38:25.193Z,101312.84
2023-02-22T05:40:51.671Z,101312.81
2023-02-22T05:43:18.236Z,101310.31
2023-02-22T05:45:44.628Z,101310.38
2023-02-22T05:48:12.883Z,101310.47
2023-02-22T05:50:39.476Z,101307.88
2023-02-22T05:53:06.432Z,101310.44
2023-02-22T05:55:33.072Z,101298.41
2023-02-22T05:57:59.460Z,101303.53
2023-02-22T06:00:30.520Z,101301.78
2023-02-22T06:03:02.731Z,101301.78
2023-02-22T06:05:30.183Z,101296.72
2023-02-22T06:07:57.696Z,101291.56
2023-02-22T06:10:25.195Z,101292.44
2023-02-22T06:12:52.446Z,101287.28
2023-02-22T06:15:20.472Z,101289.81
2023-02-22T06:17:47.431Z,101282.06
2023-02-22T06:20:17.164Z,101272.50
2023-02-22T06:22:44.646Z,101277.66
2023-02-22T06:25:16.028Z,101277.63
2023-02-22T06:27:42.623Z,101278.56
2023-02-22T06:30:13.385Z,101279.47
2023-02-22T06:32:39.964Z,101286.31
2023-02-22T06:35:07.464Z,101294.94
2023-02-22T06:37:33.862Z,101293.19
2023-02-22T06:40:04.913Z,101288.91
2023-02-22T06:42:31.859Z,101276.88
2023-02-22T06:44:58.325Z,101281.13
2023-02-22T06:47:24.777Z,101290.56
2023-02-22T06:49:55.804Z,101288.81
2023-02-22T06:52:22.984Z,101279.38
2023-02-22T06:54:50.210Z,101275.06
2023-02-22T06:57:17.075Z,101272.47
2023-02-22T06:59:43.713Z,101267.34
2023-02-22T07:02:11.788Z,101269.03
2023-02-22T07:04:39.222Z,101268.16
2023-02-22T07:07:06.546Z,101272.47
2023-02-22T07:09:33.032Z,101275.91
2023-02-22T07:11:59.558Z,101272.47
2023-02-22T07:14:26.051Z,101271.66
2023-02-22T07:16:52.470Z,101262.19
2023-02-22T07:19:18.853Z,101269.06
2023-02-22T07:21:47.883Z,101269.91
2023-02-22T07:24:14.422Z,101267.31
2023-02-22T07:26:42.288Z,101275.97
2023-02-22T07:29:08.736Z,101278.47
2023-02-22T07:31:37.191Z,101283.59
2023-02-22T07:34:03.640Z,101281.13
2023-02-22T07:36:30.082Z,101276.88
2023-02-22T07:38:56.534Z,101288.97
2023-02-22T07:41:23.083Z,101280.41
2023-02-22T07:43:49.519Z,101281.22
2023-02-22T07:46:15.930Z,101279.47
2023-02-22T07:48:42.425Z,101282.03
2023-02-22T07:51:10.068Z,101283.72
2023-02-22T07:53:36.896Z,101287.16
2023-02-22T07:56:05.571Z,101282.78
2023-02-22T07:58:32.790Z,101286.28
2023-02-22T08:01:01.996Z,101288.81
2023-02-22T08:03:31.956Z,101292.19
2023-02-22T08:06:00.422Z,101291.34
2023-02-22T08:08:26.844Z,101287.81
2023-02-22T08:10:53.232Z,101298.97
2023-02-22T08:13:21.969Z,101298.09
2023-02-22T08:15:51.891Z,101290.34
2023-02-22T08:18:20.250Z,101296.38
2023-02-22T08:20:49.310Z,101286.03
2023-02-22T08:23:16.797Z,101290.28
2023-02-22T08:25:43.213Z,101291.91
2023-02-22T08:28:12.083Z,101294.47
2023-02-22T08:30:40.668Z,101284.94
2023-02-22T08:33:07.428Z,101293.53
2023-02-22T08:35:34.033Z,101284.91
2023-02-22T08:38:03.430Z,101288.38
2023-02-22T08:40:32.959Z,101284.91
2023-02-22T08:43:01.336Z,101284.88
2023-02-22T08:45:28.470Z,101279.56
2023-02-22T08:47:54.972Z,101283.81
2023-02-22T08:50:27.909Z,101284.50
2023-02-22T08:52:56.733Z,101282.75
2023-02-22T08:55:25.084Z,101287.91
2023-02-22T08:57:51.701Z,101277.53
2023-02-22T09:00:19.731Z,101273.16
2023-02-22T09:02:46.233Z,101274.78
2023-02-22T09:05:12.908Z,101260.09
2023-02-22T09:07:42.511Z,101257.34
2023-02-22T09:10:17.587Z,101256.38
2023-02-22T09:12:44.029Z,101253.69
2023-02-22T09:15:12.370Z,101263.13
2023-02-22T09:17:38.813Z,101256.13
2023-02-22T09:20:06.950Z,101250.88
2023-02-22T09:22:33.430Z,101245.66
2023-02-22T09:25:02.608Z,101245.50
2023-02-22T09:27:34.446Z,101246.25
2023-02-22T09:30:00.872Z,101256.50
2023-02-22T09:32:28.115Z,101255.53
2023-02-22T09:34:54.740Z,101260.66
2023-02-22T09:37:21.511Z,101256.25
2023-02-22T09:39:48.040Z,101251.94
2023-02-22T09:42:29.467Z,101245.75
2023-02-22T09:45:02.424Z,101244.84
2023-02-22T09:47:41.747Z,101240.34
2023-02-22T09:50:17.620Z,101243.59
2023-02-22T09:53:14.372Z,101227.84
2023-02-22T09:55:47.813Z,101221.69
2023-02-22T09:58:24.954Z,101216.22
2023-02-22T10:00:59.620Z,101216.84
2023-02-22T10:03:50.712Z,101210.34
2023-02-22T10:06:22.710Z,101208.25
2023-02-22T10:08:54.377Z,101213.31
2023-02-22T10:11:43.230Z,101215.75
2023-02-22T10:14:43.786Z,101205.16
2023-02-22T10:17:32.016Z,101193.75
2023-02-22T10:20:13.385Z,101190.94
2023-02-22T10:22:49.520Z,101196.66
2023-02-22T10:25:20.035Z,101206.66
2023-02-22T10:28:06.490Z,101202.66
2023-02-22T10:30:38.384Z,101195.38
2023-02-22T10:33:15.044Z,101200.31
2023-02-22T10:35:42.072Z,101198.34
2023-02-22T10:38:12.512Z,101199.19
2023-02-22T10:40:39.303Z,101200.94
2023-02-22T10:43:08.187Z,101197.38
2023-02-22T10:45:37.052Z,101197.38
2023-02-22T10:48:11.681Z,101198.22
2023-02-22T10:50:41.835Z,101195.53
2023-02-22T10:53:09.555Z,101198.94
2023-02-22T10:55:37.642Z,101201.31
2023-02-22T10:58:08.767Z,101196.00
2023-02-22T11:00:40.000Z,101192.63
2023-02-22T11:03:20.049Z,101194.31
2023-02-22T11:05:47.295Z,101195.50
2023-02-22T11:08:25.923Z,101191.09
2023-02-22T11:10:55.609Z,101178.22
2023-02-22T11:13:31.619Z,101178.13
2023-02-22T11:16:17.713Z,101170.28
2023-02-22T11:18:45.739Z,101178.06
2023-02-22T11:21:13.971Z,101170.44
2023-02-22T11:23:44.798Z,101158.31
2023-02-22T11:26:16.790Z,101175.59
2023-02-22T11:28:49.998Z,101169.44
2023-02-22T11:31:23.542Z,101168.31
2023-02-22T11:33:59.285Z,101168.88
2023-02-22T11:36:42.812Z,101172.00
2023-02-22T11:39:32.362Z,101170.72
2023-02-22T11:41:58.921Z,101174.81
2023-02-22T11:44:30.764Z,101165.81
2023-02-22T11:47:06.679Z,101164.06
2023-02-22T11:49:40.489Z,101164.13
2023-02-22T11:52:28.172Z,101160.84
2023-02-22T11:55:36.292Z,101159.34
2023-02-22T11:58:08.450Z,101156.06
2023-02-22T12:01:07.070Z,101144.78
2023-02-22T12:03:58.388Z,101140.47
2023-02-22T12:06:58.300Z,101145.66
2023-02-22T12:09:42.174Z,101142.19
2023-02-22T12:12:40.457Z,101145.56
2023-02-22T12:15:18.229Z,101139.44
2023-02-22T12:18:05.760Z,101145.41
2023-02-22T12:20:39.879Z,101135.56
2023-02-22T12:23:12.889Z,101134.44
2023-02-22T12:25:46.688Z,101135.00
2023-02-22T12:28:38.060Z,101135.38
2023-02-22T12:31:40.638Z,101134.16
2023-02-22T12:34:14.235Z,101129.81
2023-02-22T12:36:47.400Z,101127.16
2023-02-22T12:39:52.095Z,101123.34
2023-02-22T12:42:41.837Z,101117.31
2023-02-22T12:45:16.887Z,101120.72
2023-02-22T12:47:51.239Z,101111.38
2023-02-22T12:50:23.421Z,101115.44
2023-02-22T12:52:56.119Z,101111.22
2023-02-22T12:55:33.080Z,101105.75
2023-02-22T12:58:30.470Z,101114.66
2023-02-22T13:01:00.693Z,101114.06
2023-02-22T13:03:37.744Z,101109.84
2023-02-22T13:06:29.126Z,101104.91
2023-02-22T13:09:17.007Z,101096.28
2023-02-22T13:11:55.891Z,101106.69
2023-02-22T13:14:41.119Z,101112.53
2023-02-22T13:17:21.046Z,101114.22
2023-02-22T13:20:10.843Z,101115.00
2023-02-22T13:23:00.381Z,101114.84
2023-02-22T13:25:38.944Z,101106.34
2023-02-22T13:28:22.312Z,101109.22
2023-02-22T13:31:07.352Z,101115.63
2023-02-22T13:33:43.980Z,101114.78
2023-02-22T13:36:33.047Z,101108.75
2023-02-22T13:39:18.182Z,101109.59
2023-02-22T13:42:32.170Z,101100.97
2023-02-22T13:45:35.764Z,101103.38
2023-02-22T13:48:08.204Z,101104.09
2023-02-22T13:50:59.578Z,101103.94
2023-02-22T13:53:32.886Z,101105.66
2023-02-22T13:56:00.607Z,101093.75
2023-02-22T13:58:27.603Z,101095.44
2023-02-22T14:00:56.975Z,101092.84
2023-02-22T14:03:34.156Z,101101.44
2023-02-22T14:06:01.382Z,101101.44
2023-02-22T14:08:33.751Z,101107.53
2023-02-22T14:11:00.858Z,101113.56
2023-02-22T14:13:29.856Z,101110.19
2023-02-22T14:16:05.241Z,101113.75
2023-02-22T14:18:34.855Z,101112.19
2023-02-22T14:21:08.590Z,101115.63
2023-02-22T14:23:36.469Z,101117.59
2023-02-22T14:26:36.890Z,101121.75
2023-02-22T14:29:09.321Z,101116.66
2023-02-22T14:31:43.466Z,101110.72
2023-02-22T14:34:17.443Z,101116.59
2023-02-22T14:36:58.360Z,101129.41
2023-02-22T14:39:43.493Z,101125.00
2023-02-22T14:42:21.875Z,101126.69
2023-02-22T14:44:48.755Z,101125.78
2023-02-22T14:47:22.677Z,101121.25
2023-02-22T14:49:52.649Z,101121.16
2023-02-22T14:52:26.609Z,101121.09
2023-02-22T14:55:06.185Z,101119.41
2023-02-22T14:57:54.976Z,101119.41
2023-02-22T15:00:31.121Z,101115.06
2023-02-22T15:03:00.338Z,101116.69
2023-02-22T15:05:30.352Z,101120.19
2023-02-22T15:08:02.363Z,101114.34
2023-02-22T15:10:45.956Z,101120.50
2023-02-22T15:13:19.857Z,101115.38
2023-02-22T15:15:49.674Z,101110.31
2023-02-22T15:18:34.458Z,101110.25
2023-02-22T15:21:23.520Z,101123.31
2023-02-22T15:23:53.660Z,101111.34
2023-02-22T15:26:25.645Z,101112.25
2023-02-22T15:28:59.538Z,101119.16
2023-02-22T15:31:35.081Z,101120.91
2023-02-22T15:34:27.248Z,101127.78
2023-02-22T15:36:56.140Z,101121.94
2023-02-22T15:39:33.136Z,101122.84
2023-02-22T15:42:08.162Z,101127.16
2023-02-22T15:44:43.326Z,101127.19
2023-02-22T15:47:27.391Z,101126.38
2023-02-22T15:50:25.930Z,101126.41
2023-02-22T15:52:59.110Z,101134.34
2023-02-22T15:55:29.925Z,101142.16
2023-02-22T15:58:01.749Z,101134.41
2023-02-22T16:00:41.515Z,101141.38
2023-02-22T16:03:11.387Z,101144.06
2023-02-22T16:05:45.952Z,101140.59
2023-02-22T16:08:20.371Z,101137.19
2023-02-22T16:11:01.042Z,101140.69
2023-02-22T16:13:35.587Z,101143.47
2023-02-22T16:16:03.355Z,101147.94
2023-02-22T16:18:36.888Z,101144.56
2023-02-22T16:21:07.221Z,101149.91
2023-02-22T16:23:50.801Z,101158.66
2023-02-22T16:26:30.808Z,101160.59
2023-02-22T16:28:58.464Z,101154.75
2023-02-22T16:31:36.809Z,101162.56
2023-02-22T16:34:06.058Z,101168.88
2023-02-22T16:36:38.220Z,101173.28
2023-02-22T16:39:14.061Z,101174.22
2023-02-22T16:41:40.566Z,101179.59
2023-02-22T16:44:07.995Z,101184.91
2023-02-22T16:46:35.077Z,101187.63
2023-02-22T16:49:03.310Z,101184.22
2023-02-22T16:51:44.849Z,101175.59
2023-02-22T16:54:13.962Z,101177.47
2023-02-22T16:56:41.230Z,101174.16
2023-02-22T16:59:12.329Z,101182.75
2023-02-22T17:01:38.767Z,101175.19
2023-02-22T17:04:28.680Z,101182.06
2023-02-22T17:06:55.066Z,101178.78
2023-02-22T17:09:21.533Z,101181.44
2023-02-22T17:11:51.342Z,101191.88
2023-02-22T17:14:23.064Z,101185.03
2023-02-22T17:16:50.639Z,101195.44
2023-02-22T17:19:19.776Z,101197.06
2023-02-22T17:21:46.265Z,101205.63
2023-02-22T17:24:14.182Z,101203.00
2023-02-22T17:26:41.572Z,101198.63
2023-02-22T17:29:08.052Z,101203.78
2023-02-22T17:31:35.232Z,101208.09
2023-02-22T17:34:04.488Z,101201.97
2023-02-22T17:36:32.687Z,101200.28
2023-02-22T17:39:00.195Z,101208.91
2023-02-22T17:41:26.624Z,101204.63
2023-02-22T17:43:54.457Z,101208.09
2023-02-22T17:46:21.100Z,101213.19
2023-02-22T17:48:53.598Z,101208.00
2023-02-22T17:51:22.278Z,101208.09
2023-02-22T17:53:48.708Z,101207.22
2023-02-22T17:56:18.701Z,101212.41
2023-02-22T17:58:47.845Z,101215.00
2023-02-22T18:01:26.899Z,101212.41
2023-02-22T18:03:55.119Z,101215.13
2023-02-22T18:06:25.408Z,101214.28
2023-02-22T18:08:55.742Z,101216.88
2023-02-22T18:11:26.129Z,101227.19
2023-02-22T18:13:57.393Z,101219.41
2023-02-22T18:16:28.403Z,101221.16
2023-02-22T18:18:55.848Z,101222.84
2023-02-22T18:21:23.120Z,101227.97
2023-02-22T18:23:49.731Z,101222.84
2023-02-22T18:26:18.242Z,101229.72
2023-02-22T18:28:44.854Z,101223.69
2023-02-22T18:31:14.924Z,101226.25
2023-02-22T18:33:43.181Z,101228.88
2023-02-22T18:36:13.265Z,101234.06
2023-02-22T18:38:43.669Z,101231.47
2023-02-22T18:41:17.033Z,101229.69
2023-02-22T18:43:44.247Z,101226.34
2023-02-22T18:46:17.909Z,101233.28
2023-02-22T18:48:46.627Z,101228.16
2023-02-22T18:51:15.847Z,101230.69
2023-02-22T18:53:47.121Z,101230.75
2023-02-22T18:56:21.754Z,101228.16
2023-02-22T18:58:52.900Z,101231.59
2023-02-22T19:01:19.566Z,101233.38
2023-02-22T19:03:47.264Z,101226.47
2023-02-22T19:06:15.809Z,101225.59
2023-02-22T19:08:43.278Z,101227.41
2023-02-22T19:11:17.881Z,101233.50
2023-02-22T19:13:46.537Z,101226.69
2023-02-22T19:16:14.531Z,101232.84
2023-02-22T19:18:44.126Z,101226.78
2023-02-22T19:21:12.304Z,101225.09
2023-02-22T19:23:45.510Z,101229.47
2023-02-22T19:26:13.824Z,101231.13
2023-02-22T19:28:40.345Z,101228.59
2023-02-22T19:31:33.597Z,101238.06
2023-02-22T19:34:10.290Z,101230.38
2023-02-22T19:36:43.232Z,101233.84
2023-02-22T19:39:09.719Z,101233.06
2023-02-22T19:41:36.483Z,101235.66
2023-02-22T19:44:02.934Z,101238.25
2023-02-22T19:46:29.447Z,101238.28
2023-02-22T19:48:56.150Z,101242.66
2023-02-22T19:51:28.581Z,101240.88
2023-02-22T19:54:04.368Z,101242.56
2023-02-22T19:56:31.620Z,101240.94
2023-02-22T19:59:02.051Z,101253.91
2023-02-22T20:01:33.139Z,101252.16
2023-02-22T20:04:01.999Z,101260.06
2023-02-22T20:06:34.488Z,101264.41
2023-02-22T20:09:02.549Z,101265.28
2023-02-22T20:11:29.867Z,101266.16
2023-02-22T20:13:56.229Z,101274.81
2023-02-22T20:16:23.484Z,101268.84
2023-02-22T20:18:50.455Z,101275.78
2023-02-22T20:21:30.733Z,101279.22
2023-02-22T20:24:02.460Z,101279.25
2023-02-22T20:26:31.175Z,101281.84
2023-02-22T20:28:59.180Z,101278.47
2023-02-22T20:31:26.281Z,101279.38
2023-02-22T20:33:55.519Z,101280.22
2023-02-22T20:36:22.821Z,101280.28
2023-02-22T20:38:56.080Z,101286.25
2023-02-22T20:41:27.096Z,101288.00
2023-02-22T20:43:55.256Z,101288.00
2023-02-22T20:46:23.766Z,101282.03
2023-02-22T20:48:55.260Z,101283.78
2023-02-22T20:51:21.888Z,101285.56
2023-02-22T20:53:48.826Z,101283.91
2023-02-22T20:56:23.733Z,101282.97
2023-02-22T20:58:50.871Z,101278.72
2023-02-22T21:01:19.906Z,101276.97
2023-02-22T21:03:46.905Z,101276.97
2023-02-22T21:06:18.222Z,101290.81
2023-02-22T21:08:49.149Z,101295.16
2023-02-22T21:11:17.592Z,101296.91
2023-02-22T21:13:44.205Z,101300.28
2023-02-22T21:16:17.676Z,101296.78
2023-02-22T21:18:44.228Z,101294.28
2023-02-22T21:21:12.187Z,101296.00
2023-02-22T21:23:40.568Z,101296.88
2023-02-22T21:26:13.303Z,101296.09
2023-02-22T21:28:50.966Z,101296.94
2023-02-22T21:31:20.341Z,101301.25
2023-02-22T21:33:50.322Z,101294.44
2023-02-22T21:36:17.091Z,101302.31
2023-02-22T21:38:47.047Z,101293.69
2023-02-22T21:41:15.537Z,101299.72
2023-02-22T21:43:43.356Z,101292.06
2023-02-22T21:46:10.732Z,101295.53
2023-02-22T21:48:38.852Z,101294.72
2023-02-22T21:51:13.697Z,101299.09
2023-02-22T21:53:48.818Z,101298.25
2023-02-22T21:56:22.989Z,101298.25
2023-02-22T21:59:00.960Z,101299.13
2023-02-22T22:01:29.604Z,101298.31
2023-02-22T22:03:59.648Z,101298.31
2023-02-22T22:06:28.085Z,101300.06
2023-02-22T22:08:55.149Z,101300.13
2023-02-22T22:11:22.189Z,101306.09
2023-02-22T22:13:49.110Z,101301.78
2023-02-22T22:16:18.451Z,101304.38
2023-02-22T22:18:47.320Z,101305.25
2023-02-22T22:21:19.614Z,101300.88
2023-02-22T22:23:47.540Z,101307.84
2023-02-22T22:26:16.399Z,101307.84
2023-02-22T22:28:57.932Z,101306.22
2023-02-22T22:31:26.030Z,101306.25
2023-02-22T22:33:52.926Z,101297.66
2023-02-22T22:36:21.420Z,101303.72
2023-02-22T22:38:48.600Z,101296.84
2023-02-22T22:41:17.516Z,101303.72
2023-02-22T22:43:47.487Z,101313.19
2023-02-22T22:46:17.603Z,101304.50
2023-02-22T22:48:46.911Z,101300.25
2023-02-22T22:51:20.667Z,101296.81
2023-02-22T22:53:48.734Z,101296.03
2023-02-22T22:56:21.703Z,101303.81
2023-02-22T22:58:48.018Z,101296.97
2023-02-22T23:01:20.162Z,101302.16
2023-02-22T23:03:54.841Z,101302.19
2023-02-22T23:06:24.941Z,101294.44
2023-02-22T23:08:59.982Z,101298.78
2023-02-22T23:11:28.763Z,101295.44
2023-02-22T23:13:56.376Z,101301.53
2023-02-22T23:16:24.181Z,101299.00
2023-02-22T23:18:51.444Z,101302.44
2023-02-22T23:21:23.707Z,101300.75
2023-02-22T23:23:54.864Z,101306.72
2023-02-22T23:26:21.238Z,101307.66
2023-02-22T23:28:48.940Z,101312.78
2023-02-22T23:31:17.820Z,101319.72
2023-02-22T23:33:48.118Z,101326.66
2023-02-22T23:36:16.043Z,101320.69
2023-02-22T23:38:43.291Z,101325.78
2023-02-22T23:41:12.201Z,101324.00
2023-02-22T23:43:42.900Z,101321.47
2023-02-22T23:46:12.163Z,101324.94
2023-02-22T23:48:40.430Z,101324.13
2023-02-22T23:51:09.248Z,101324.06
2023-02-22T23:53:38.144Z,101327.53
2023-02-22T23:56:13.100Z,101325.88
2023-02-22T23:58:42.069Z,101328.44
